createdAt,value
2017-11-17T00:00:45.548Z,32.57
2017-11-17T00:03:12.955Z,33.00
2017-11-17T00:05:40.378Z,31.50
2017-11-17T00:08:09.305Z,32.80
2017-11-17T00:10:37.479Z,34.30
2017-11-17T00:13:04.900Z,36.27
2017-11-17T00:15:32.320Z,34.80
2017-11-17T00:18:00.572Z,33.70
2017-11-17T00:20:27.976Z,35.20
2017-11-17T00:22:56.244Z,35.23
2017-11-17T00:25:23.799Z,35.37
2017-11-17T00:27:52.306Z,37.30
2017-11-17T00:30:19.719Z,35.30
2017-11-17T00:32:47.198Z,36.27
2017-11-17T00:35:14.607Z,34.10
2017-11-17T00:37:42.130Z,35.00
2017-11-17T00:40:09.562Z,36.03
2017-11-17T00:42:37.735Z,35.20
2017-11-17T00:45:05.168Z,36.27
2017-11-17T00:47:32.589Z,35.60
2017-11-17T00:50:00.832Z,33.47
2017-11-17T00:52:28.288Z,35.60
2017-11-17T00:54:55.727Z,35.47
2017-11-17T00:57:23.931Z,35.83
2017-11-17T00:59:52.123Z,34.87
2017-11-17T01:02:20.338Z,35.20
2017-11-17T01:04:47.755Z,35.57
2017-11-17T01:07:15.179Z,34.63
2017-11-17T01:09:42.626Z,35.57
2017-11-17T01:12:10.151Z,33.97
2017-11-17T01:14:37.660Z,34.00
2017-11-17T01:17:05.839Z,34.00
2017-11-17T01:19:34.020Z,33.53
2017-11-17T01:22:02.218Z,33.00
2017-11-17T01:24:29.716Z,33.67
2017-11-17T01:26:57.141Z,32.10
2017-11-17T01:29:25.330Z,30.90
2017-11-17T01:31:52.866Z,29.70
2017-11-17T01:34:20.265Z,29.70
2017-11-17T01:36:48.471Z,31.77
2017-11-17T01:39:16.734Z,29.13
2017-11-17T01:41:44.190Z,28.30
2017-11-17T01:44:11.660Z,27.57
2017-11-17T01:46:39.100Z,26.50
2017-11-17T01:49:06.516Z,27.10
2017-11-17T01:51:34.692Z,26.77
2017-11-17T01:54:02.875Z,26.00
2017-11-17T01:56:30.383Z,26.07
2017-11-17T01:58:57.830Z,23.23
2017-11-17T02:01:26.381Z,22.53
2017-11-17T02:03:53.995Z,22.50
2017-11-17T02:06:22.209Z,22.57
2017-11-17T02:08:49.633Z,21.13
2017-11-17T02:11:17.098Z,20.30
2017-11-17T02:13:44.515Z,20.17
2017-11-17T02:16:11.972Z,19.90
2017-11-17T02:18:40.189Z,22.10
2017-11-17T02:21:07.632Z,21.63
2017-11-17T02:23:35.048Z,22.27
2017-11-17T02:26:02.469Z,22.07
2017-11-17T02:28:29.899Z,19.80
2017-11-17T02:30:58.134Z,20.93
2017-11-17T02:33:25.564Z,20.37
2017-11-17T02:35:53.757Z,18.33
2017-11-17T02:38:21.953Z,18.43
2017-11-17T02:40:49.438Z,17.87
2017-11-17T02:43:16.849Z,17.53
2017-11-17T02:45:44.264Z,17.63
2017-11-17T02:48:11.681Z,16.90
2017-11-17T02:50:39.108Z,17.70
2017-11-17T02:53:06.520Z,17.37
2017-11-17T02:55:33.935Z,17.37
2017-11-17T02:58:01.408Z,18.60
2017-11-17T03:00:28.878Z,17.80
2017-11-17T03:02:56.334Z,18.57
2017-11-17T03:05:24.542Z,18.27
2017-11-17T03:07:51.944Z,18.57
2017-11-17T03:10:19.370Z,19.57
2017-11-17T03:12:46.883Z,20.47
2017-11-17T03:15:14.300Z,20.90
2017-11-17T03:17:41.792Z,22.20
2017-11-17T03:20:09.212Z,22.80
2017-11-17T03:22:37.396Z,21.50
2017-11-17T03:25:05.576Z,22.90
2017-11-17T03:27:33.796Z,22.97
2017-11-17T03:30:01.240Z,24.93
2017-11-17T03:32:28.653Z,24.93
2017-11-17T03:34:56.060Z,24.83
2017-11-17T03:37:23.582Z,24.90
2017-11-17T03:39:51.053Z,24.23
2017-11-17T03:42:18.448Z,24.87
2017-11-17T03:44:45.903Z,25.37
2017-11-17T03:47:13.306Z,24.83
2017-11-17T03:49:41.494Z,23.13
2017-11-17T03:52:09.742Z,22.60
2017-11-17T03:54:37.199Z,23.60
2017-11-17T03:57:04.651Z,24.90
2017-11-17T03:59:32.053Z,23.33
2017-11-17T04:01:59.491Z,24.30
2017-11-17T04:04:26.895Z,22.67
2017-11-17T04:06:54.346Z,23.40
2017-11-17T04:09:21.816Z,21.60
2017-11-17T04:11:49.263Z,19.90
2017-11-17T04:14:16.728Z,21.13
2017-11-17T04:16:44.161Z,19.47
2017-11-17T04:19:11.663Z,18.67
2017-11-17T04:21:39.092Z,16.60
2017-11-17T04:24:06.608Z,14.83
2017-11-17T04:26:34.031Z,18.03
2017-11-17T04:29:01.486Z,16.30
2017-11-17T04:31:28.903Z,15.73
2017-11-17T04:33:56.322Z,15.77
2017-11-17T04:36:23.762Z,15.93
2017-11-17T04:38:51.320Z,16.43
2017-11-17T04:41:18.785Z,17.67
2017-11-17T04:43:46.205Z,17.13
2017-11-17T04:46:13.735Z,18.23
2017-11-17T04:48:41.191Z,19.97
2017-11-17T04:51:08.725Z,19.50
2017-11-17T04:53:36.341Z,20.60
2017-11-17T04:56:03.854Z,18.97
2017-11-17T04:58:31.387Z,19.37
2017-11-17T05:00:58.799Z,20.33
2017-11-17T05:03:26.216Z,19.93
2017-11-17T05:05:53.652Z,19.07
2017-11-17T05:08:21.863Z,20.47
2017-11-17T05:10:49.282Z,20.57
2017-11-17T05:13:16.808Z,19.93
2017-11-17T05:15:44.256Z,20.57
2017-11-17T05:18:11.681Z,20.87
2017-11-17T05:20:39.106Z,20.00
2017-11-17T05:23:06.547Z,21.07
2017-11-17T05:25:33.985Z,20.40
2017-11-17T05:28:01.402Z,21.10
2017-11-17T05:30:28.817Z,21.43
2017-11-17T05:32:56.271Z,23.50
2017-11-17T05:35:23.736Z,25.73
2017-11-17T05:37:51.166Z,20.13
2017-11-17T05:40:19.352Z,21.20
2017-11-17T05:42:47.543Z,21.70
2017-11-17T05:45:14.959Z,20.80
2017-11-17T05:47:42.394Z,19.20
2017-11-17T05:50:09.792Z,20.37
2017-11-17T05:52:37.212Z,20.40
2017-11-17T05:55:04.680Z,20.17
2017-11-17T05:57:32.175Z,21.40
2017-11-17T05:59:59.596Z,20.63
2017-11-17T06:02:27.135Z,20.00
2017-11-17T06:04:54.557Z,22.87
2017-11-17T06:07:22.750Z,20.07
2017-11-17T06:09:50.215Z,19.87
2017-11-17T06:12:17.636Z,20.17
2017-11-17T06:14:45.087Z,18.80
2017-11-17T06:17:12.539Z,20.40
2017-11-17T06:19:39.951Z,20.00
2017-11-17T06:22:07.364Z,18.80
2017-11-17T06:24:34.780Z,18.90
2017-11-17T06:27:02.295Z,18.60
2017-11-17T06:29:29.752Z,18.80
2017-11-17T06:31:57.236Z,16.93
2017-11-17T06:34:24.817Z,17.73
2017-11-17T06:36:52.224Z,18.60
2017-11-17T06:39:19.644Z,18.53
2017-11-17T06:41:47.059Z,20.37
2017-11-17T06:44:14.473Z,18.73
2017-11-17T06:46:41.952Z,18.73
2017-11-17T06:49:09.424Z,19.47
2017-11-17T06:51:36.819Z,18.90
2017-11-17T06:54:04.237Z,19.20
2017-11-17T06:56:32.462Z,19.00
2017-11-17T06:58:59.876Z,20.40
2017-11-17T07:01:27.375Z,21.37
2017-11-17T07:03:54.868Z,21.57
2017-11-17T07:06:22.283Z,20.50
2017-11-17T07:08:50.463Z,18.80
2017-11-17T07:11:17.962Z,19.10
2017-11-17T07:13:45.374Z,19.70
2017-11-17T07:16:12.791Z,18.80
2017-11-17T07:18:40.281Z,18.67
2017-11-17T07:21:08.459Z,18.20
2017-11-17T07:23:35.883Z,19.10
2017-11-17T07:26:03.288Z,22.10
2017-11-17T07:28:30.774Z,19.37
2017-11-17T07:30:58.344Z,19.50
2017-11-17T07:33:25.761Z,20.07
2017-11-17T07:35:53.176Z,19.93
2017-11-17T07:38:20.599Z,18.90
2017-11-17T07:40:48.011Z,19.13
2017-11-17T07:43:15.433Z,18.03
2017-11-17T07:45:42.861Z,17.97
2017-11-17T07:48:10.268Z,17.30
2017-11-17T07:50:38.491Z,16.57
2017-11-17T07:53:05.960Z,17.37
2017-11-17T07:55:33.538Z,16.90
2017-11-17T07:58:00.976Z,16.23
2017-11-17T08:00:29.186Z,16.73
2017-11-17T08:02:56.614Z,16.70
2017-11-17T08:05:24.098Z,16.60
2017-11-17T08:07:51.645Z,15.30
2017-11-17T08:10:19.081Z,16.60
2017-11-17T08:12:46.516Z,15.93
2017-11-17T08:15:14.723Z,15.67
2017-11-17T08:17:54.070Z,16.60
2017-11-17T08:20:21.496Z,14.03
2017-11-17T08:22:49.727Z,14.07
2017-11-17T08:25:17.156Z,14.47
2017-11-17T08:27:45.354Z,13.97
2017-11-17T08:30:12.759Z,14.57
2017-11-17T08:32:40.214Z,12.93
2017-11-17T08:35:07.792Z,14.43
2017-11-17T08:37:35.184Z,13.00
2017-11-17T08:40:02.602Z,14.50
2017-11-17T08:42:30.787Z,12.93
2017-11-17T08:44:58.217Z,13.03
2017-11-17T08:47:25.674Z,13.13
2017-11-17T08:49:53.092Z,12.27
2017-11-17T08:52:20.544Z,11.77
2017-11-17T08:54:48.746Z,11.27
2017-11-17T08:57:16.947Z,12.50
2017-11-17T08:59:44.371Z,10.63
2017-11-17T09:02:11.817Z,11.10
2017-11-17T09:04:39.208Z,13.17
2017-11-17T09:07:06.731Z,10.90
2017-11-17T09:09:34.196Z,10.63
2017-11-17T09:12:01.664Z,10.53
2017-11-17T09:14:29.084Z,10.20
2017-11-17T09:16:56.596Z,10.30
2017-11-17T09:19:24.047Z,10.40
2017-11-17T09:21:52.259Z,10.13
2017-11-17T09:24:19.682Z,10.10
2017-11-17T09:26:47.120Z,9.93
2017-11-17T09:29:14.574Z,10.20
2017-11-17T09:31:41.980Z,9.90
2017-11-17T09:34:09.416Z,10.03
2017-11-17T09:36:36.831Z,9.10
2017-11-17T09:39:05.010Z,9.90
2017-11-17T09:41:32.424Z,8.90
2017-11-17T09:43:59.835Z,9.60
2017-11-17T09:46:27.270Z,8.93
2017-11-17T09:48:54.679Z,9.00
2017-11-17T09:51:22.931Z,8.37
2017-11-17T09:53:50.330Z,8.40
2017-11-17T09:56:17.763Z,8.43
2017-11-17T09:58:45.200Z,8.73
2017-11-17T10:01:12.648Z,8.07
2017-11-17T10:03:40.037Z,8.27
2017-11-17T10:06:07.451Z,8.63
2017-11-17T10:08:35.804Z,7.70
2017-11-17T10:11:03.224Z,7.67
2017-11-17T10:13:30.630Z,7.80
2017-11-17T10:15:58.052Z,6.10
2017-11-17T10:18:25.473Z,7.00
2017-11-17T10:20:52.911Z,7.23
2017-11-17T10:23:21.108Z,8.20
2017-11-17T10:25:49.415Z,7.83
2017-11-17T10:28:17.572Z,7.73
2017-11-17T10:30:45.772Z,7.50
2017-11-17T10:33:13.935Z,8.43
2017-11-17T10:35:42.121Z,8.13
2017-11-17T10:38:09.536Z,7.83
2017-11-17T10:40:36.961Z,7.70
2017-11-17T10:43:04.365Z,7.10
2017-11-17T10:45:31.799Z,7.40
2017-11-17T10:47:59.297Z,7.80
2017-11-17T10:50:26.717Z,7.97
2017-11-17T10:52:54.261Z,7.60
2017-11-17T10:55:21.712Z,7.90
2017-11-17T10:57:49.172Z,7.90
2017-11-17T11:00:21.463Z,6.90
2017-11-17T11:02:48.867Z,7.17
2017-11-17T11:05:16.328Z,7.50
2017-11-17T11:07:43.760Z,7.13
2017-11-17T11:10:11.216Z,7.70
2017-11-17T11:12:38.648Z,7.67
2017-11-17T11:15:06.053Z,7.80
2017-11-17T11:17:33.465Z,6.67
2017-11-17T11:20:00.908Z,6.77
2017-11-17T11:22:28.408Z,7.67
2017-11-17T11:24:55.887Z,5.17
2017-11-17T11:27:23.283Z,6.13
2017-11-17T11:29:51.491Z,6.17
2017-11-17T11:32:18.919Z,5.70
2017-11-17T11:34:46.428Z,5.97
2017-11-17T11:37:13.836Z,5.67
2017-11-17T11:39:41.253Z,4.63
2017-11-17T11:42:08.836Z,4.67
2017-11-17T11:44:36.995Z,5.00
2017-11-17T11:47:05.177Z,4.50
2017-11-17T11:49:33.367Z,4.43
2017-11-17T11:52:01.567Z,4.60
2017-11-17T11:54:29.745Z,4.33
2017-11-17T11:56:57.180Z,6.30
2017-11-17T11:59:24.642Z,5.67
2017-11-17T12:01:52.070Z,5.90
2017-11-17T12:04:19.477Z,4.53
2017-11-17T12:06:46.896Z,4.67
2017-11-17T12:09:14.392Z,4.80
2017-11-17T12:11:41.791Z,4.77
2017-11-17T12:14:09.331Z,5.10
2017-11-17T12:16:36.773Z,5.30
2017-11-17T12:19:04.180Z,5.47
2017-11-17T12:21:31.716Z,4.53
2017-11-17T12:23:59.880Z,4.43
2017-11-17T12:26:28.198Z,5.20
2017-11-17T12:28:56.368Z,4.87
2017-11-17T12:31:23.845Z,4.27
2017-11-17T12:33:51.316Z,4.43
2017-11-17T12:36:18.795Z,5.00
2017-11-17T12:38:46.232Z,4.30
2017-11-17T12:41:13.649Z,4.27
2017-11-17T12:43:41.075Z,4.10
2017-11-17T12:46:08.515Z,4.00
2017-11-17T12:48:36.954Z,4.20
2017-11-17T12:51:04.375Z,4.47
2017-11-17T12:53:31.906Z,3.40
2017-11-17T12:55:59.310Z,3.90
2017-11-17T12:58:27.540Z,4.27
2017-11-17T13:00:55.843Z,4.23
2017-11-17T13:03:23.241Z,3.77
2017-11-17T13:05:50.766Z,3.80
2017-11-17T13:08:18.924Z,4.07
2017-11-17T13:10:47.128Z,3.53
2017-11-17T13:13:14.560Z,3.10
2017-11-17T13:15:41.981Z,3.90
2017-11-17T13:18:09.395Z,3.40
2017-11-17T13:20:36.799Z,2.80
2017-11-17T13:23:04.246Z,3.27
2017-11-17T13:25:31.749Z,3.03
2017-11-17T13:27:59.170Z,3.23
2017-11-17T13:30:26.596Z,3.17
2017-11-17T13:32:54.036Z,3.37
2017-11-17T13:35:21.475Z,3.13
2017-11-17T13:37:48.983Z,2.90
2017-11-17T13:40:18.151Z,2.60
2017-11-17T13:42:47.069Z,3.57
2017-11-17T13:45:15.261Z,3.83
2017-11-17T13:47:43.436Z,3.10
2017-11-17T13:50:11.040Z,3.23
2017-11-17T13:52:39.200Z,3.73
2017-11-17T13:55:07.404Z,3.17
2017-11-17T13:57:34.871Z,3.00
2017-11-17T14:00:02.316Z,3.70
2017-11-17T14:02:30.503Z,3.30
2017-11-17T14:04:58.004Z,3.40
2017-11-17T14:07:25.647Z,3.23
2017-11-17T14:09:53.185Z,2.90
2017-11-17T14:12:20.644Z,3.47
2017-11-17T14:14:48.201Z,3.10
2017-11-17T14:17:15.600Z,2.87
2017-11-17T14:19:43.127Z,3.00
2017-11-17T14:22:10.529Z,2.90
2017-11-17T14:24:37.932Z,3.40
2017-11-17T14:27:06.131Z,3.00
2017-11-17T14:29:34.296Z,3.20
2017-11-17T14:32:02.474Z,3.80
2017-11-17T14:34:29.892Z,2.80
2017-11-17T14:36:57.318Z,2.63
2017-11-17T14:39:25.516Z,3.27
2017-11-17T14:41:53.913Z,2.80
2017-11-17T14:44:22.069Z,4.00
2017-11-17T14:46:49.489Z,3.50
2017-11-17T14:49:16.907Z,4.90
2017-11-17T14:51:44.331Z,2.90
2017-11-17T14:54:11.748Z,2.90
2017-11-17T14:56:39.933Z,3.30
2017-11-17T14:59:08.140Z,2.80
2017-11-17T15:01:36.336Z,2.53
2017-11-17T15:04:03.773Z,3.07
2017-11-17T15:06:31.279Z,3.43
2017-11-17T15:08:58.699Z,3.83
2017-11-17T15:11:26.232Z,3.33
2017-11-17T15:13:53.661Z,3.57
2017-11-17T15:16:21.081Z,3.67
2017-11-17T15:18:48.520Z,2.40
2017-11-17T15:21:15.933Z,2.93
2017-11-17T15:23:43.466Z,3.20
2017-11-17T15:26:10.884Z,3.43
2017-11-17T15:28:38.387Z,3.00
2017-11-17T15:31:05.805Z,3.00
2017-11-17T15:33:33.432Z,4.10
2017-11-17T15:36:00.908Z,4.20
2017-11-17T15:38:28.309Z,4.20
2017-11-17T15:40:55.729Z,4.20
2017-11-17T15:43:23.155Z,4.00
2017-11-17T15:45:50.579Z,5.10
2017-11-17T15:48:17.995Z,4.70
2017-11-17T15:50:45.415Z,4.73
2017-11-17T15:53:12.894Z,4.77
2017-11-17T15:55:40.451Z,4.97
2017-11-17T15:58:07.867Z,4.40
2017-11-17T16:00:35.389Z,4.47
2017-11-17T16:03:02.989Z,4.23
2017-11-17T16:05:30.376Z,4.00
2017-11-17T16:07:57.797Z,4.80
2017-11-17T16:10:25.270Z,4.90
2017-11-17T16:12:52.754Z,4.63
2017-11-17T16:15:20.158Z,4.60
2017-11-17T16:17:47.580Z,5.30
2017-11-17T16:20:15.029Z,6.43
2017-11-17T16:22:42.511Z,6.20
2017-11-17T16:25:10.105Z,6.20
2017-11-17T16:27:37.521Z,8.03
2017-11-17T16:30:04.934Z,9.57
2017-11-17T16:32:32.339Z,7.30
2017-11-17T16:35:00.525Z,7.37
2017-11-17T16:37:27.998Z,6.53
2017-11-17T16:39:55.425Z,6.50
2017-11-17T16:42:22.849Z,6.70
2017-11-17T16:44:51.164Z,5.97
2017-11-17T16:47:18.573Z,5.87
2017-11-17T16:49:46.093Z,6.30
2017-11-17T16:52:13.568Z,6.40
2017-11-17T16:54:40.968Z,6.60
2017-11-17T16:57:08.376Z,7.10
2017-11-17T16:59:36.567Z,7.30
2017-11-17T17:02:04.736Z,7.13
2017-11-17T17:04:32.915Z,6.53
2017-11-17T17:07:00.325Z,7.80
2017-11-17T17:09:27.736Z,8.60
2017-11-17T17:11:55.173Z,9.23
2017-11-17T17:14:22.737Z,8.30
2017-11-17T17:16:50.200Z,8.40
2017-11-17T17:19:17.619Z,8.60
2017-11-17T17:21:45.148Z,8.17
2017-11-17T17:24:12.535Z,9.97
2017-11-17T17:26:39.969Z,7.90
2017-11-17T17:29:07.447Z,7.33
2017-11-17T17:31:34.848Z,7.40
2017-11-17T17:34:02.249Z,6.93
2017-11-17T17:36:30.472Z,6.33
2017-11-17T17:38:58.033Z,7.10
2017-11-17T17:41:25.511Z,6.50
2017-11-17T17:43:53.704Z,7.60
2017-11-17T17:46:21.109Z,7.17
2017-11-17T17:48:48.524Z,7.20
2017-11-17T17:51:15.935Z,6.53
2017-11-17T17:53:43.375Z,7.10
2017-11-17T17:56:10.778Z,6.90
2017-11-17T17:58:38.217Z,7.67
2017-11-17T18:01:05.632Z,7.10
2017-11-17T18:03:33.053Z,7.70
2017-11-17T18:06:00.490Z,8.43
2017-11-17T18:08:27.963Z,7.63
2017-11-17T18:10:55.440Z,7.17
2017-11-17T18:13:22.847Z,7.27
2017-11-17T18:15:50.376Z,7.13
2017-11-17T18:18:18.549Z,7.60
2017-11-17T18:20:45.960Z,8.27
2017-11-17T18:23:13.400Z,8.07
2017-11-17T18:25:40.796Z,7.50
2017-11-17T18:28:08.255Z,8.10
2017-11-17T18:30:36.431Z,7.77
2017-11-17T18:33:03.875Z,6.80
2017-11-17T18:35:31.292Z,6.80
2017-11-17T18:37:58.663Z,6.30
2017-11-17T18:40:26.076Z,6.10
2017-11-17T18:42:53.507Z,6.47
2017-11-17T18:45:21.439Z,6.90
2017-11-17T18:47:48.845Z,6.23
2017-11-17T18:50:16.407Z,5.57
2017-11-17T18:52:43.782Z,5.60
2017-11-17T18:55:11.185Z,5.63
2017-11-17T18:57:39.386Z,5.40
2017-11-17T19:00:07.553Z,5.00
2017-11-17T19:02:35.722Z,5.00
2017-11-17T19:05:03.161Z,4.90
2017-11-17T19:07:30.590Z,5.70
2017-11-17T19:09:58.001Z,5.40
2017-11-17T19:12:25.411Z,4.93
2017-11-17T19:14:53.603Z,5.33
2017-11-17T19:17:21.786Z,5.20
2017-11-17T19:19:49.238Z,6.00
2017-11-17T19:22:16.744Z,5.40
2017-11-17T19:24:44.214Z,5.60
2017-11-17T19:27:11.600Z,5.80
2017-11-17T19:29:39.009Z,5.50
2017-11-17T19:32:06.424Z,5.07
2017-11-17T19:34:33.823Z,5.47
2017-11-17T19:37:01.228Z,5.00
2017-11-17T19:39:29.403Z,6.60
2017-11-17T19:41:57.569Z,6.60
2017-11-17T19:44:25.106Z,6.30
2017-11-17T19:46:52.572Z,6.33
2017-11-17T19:49:19.980Z,7.07
2017-11-17T19:51:47.502Z,6.17
2017-11-17T19:54:14.907Z,5.40
2017-11-17T19:56:42.322Z,5.23
2017-11-17T19:59:09.728Z,5.00
2017-11-17T20:01:37.156Z,5.73
2017-11-17T20:04:04.564Z,5.20
2017-11-17T20:06:31.985Z,5.50
2017-11-17T20:09:00.187Z,4.93
2017-11-17T20:11:27.603Z,5.47
2017-11-17T20:13:55.029Z,5.60
2017-11-17T20:16:22.440Z,5.30
2017-11-17T20:18:49.891Z,6.57
2017-11-17T20:21:17.286Z,7.03
2017-11-17T20:23:45.503Z,6.73
2017-11-17T20:26:12.932Z,6.57
2017-11-17T20:28:40.328Z,6.73
2017-11-17T20:31:07.756Z,7.15
2017-11-17T20:33:35.174Z,8.60
2017-11-17T20:36:02.581Z,8.50
2017-11-17T20:38:30.005Z,6.70
2017-11-17T20:40:57.490Z,5.80
2017-11-17T20:43:24.992Z,5.45
2017-11-17T20:45:52.524Z,4.97
2017-11-17T20:48:21.564Z,5.50
2017-11-17T20:50:48.972Z,5.57
2017-11-17T20:53:17.149Z,5.67
2017-11-17T20:55:46.080Z,5.70
2017-11-17T20:58:13.559Z,6.13
2017-11-17T21:00:40.963Z,6.17
2017-11-17T21:03:08.404Z,6.70
2017-11-17T21:05:35.789Z,5.10
2017-11-17T21:08:03.199Z,5.27
2017-11-17T21:10:31.380Z,5.57
2017-11-17T21:12:58.802Z,5.67
2017-11-17T21:15:26.215Z,4.27
2017-11-17T21:17:54.412Z,5.10
2017-11-17T21:20:22.597Z,5.20
2017-11-17T21:22:50.802Z,5.87
2017-11-17T21:25:18.218Z,5.20
2017-11-17T21:27:45.619Z,5.00
2017-11-17T21:30:13.797Z,5.90
2017-11-17T21:32:41.964Z,4.73
2017-11-17T21:35:09.401Z,4.33
2017-11-17T21:37:36.812Z,5.50
2017-11-17T21:40:04.310Z,4.60
2017-11-17T21:42:31.723Z,4.70
2017-11-17T21:44:59.148Z,4.47
2017-11-17T21:47:26.623Z,4.50
2017-11-17T21:49:54.091Z,4.27
2017-11-17T21:52:21.502Z,3.07
2017-11-17T21:54:48.924Z,4.47
2017-11-17T21:57:16.345Z,4.17
2017-11-17T21:59:43.752Z,3.97
2017-11-17T22:02:11.174Z,3.67
2017-11-17T22:04:38.580Z,3.90
2017-11-17T22:07:06.006Z,4.27
2017-11-17T22:09:33.423Z,4.30
2017-11-17T22:12:00.911Z,4.10
2017-11-17T22:14:28.375Z,4.00
2017-11-17T22:16:55.853Z,4.50
2017-11-17T22:19:23.256Z,4.50
2017-11-17T22:21:51.446Z,4.37
2017-11-17T22:24:18.881Z,4.67
2017-11-17T22:26:46.284Z,4.53
2017-11-17T22:29:13.688Z,4.27
2017-11-17T22:31:41.171Z,4.80
2017-11-17T22:34:08.586Z,4.20
2017-11-17T22:36:36.015Z,3.50
2017-11-17T22:39:03.422Z,4.13
2017-11-17T22:41:30.839Z,3.30
2017-11-17T22:43:58.239Z,3.67
2017-11-17T22:46:25.678Z,3.93
2017-11-17T22:48:53.140Z,3.40
2017-11-17T22:51:20.543Z,3.50
2017-11-17T22:53:47.957Z,3.37
2017-11-17T22:56:16.135Z,3.50
2017-11-17T22:58:44.449Z,3.63
2017-11-17T23:01:11.879Z,3.40
2017-11-17T23:03:40.106Z,3.30
2017-11-17T23:06:08.287Z,3.50
2017-11-17T23:08:35.761Z,3.00
2017-11-17T23:11:03.227Z,3.90
2017-11-17T23:13:30.692Z,3.33
2017-11-17T23:15:58.119Z,3.13
2017-11-17T23:18:25.628Z,3.80
2017-11-17T23:20:53.116Z,3.57
2017-11-17T23:23:20.518Z,4.00
2017-11-17T23:25:47.934Z,4.00
2017-11-17T23:28:15.350Z,3.50
2017-11-17T23:30:42.773Z,4.10
2017-11-17T23:33:10.187Z,4.32
2017-11-17T23:35:37.708Z,4.00
2017-11-17T23:38:05.120Z,4.13
2017-11-17T23:40:32.555Z,4.87
2017-11-17T23:42:59.985Z,3.90
2017-11-17T23:45:27.412Z,4.73
2017-11-17T23:47:54.840Z,4.87
2017-11-17T23:50:23.033Z,4.70
2017-11-17T23:52:50.446Z,4.70
2017-11-17T23:55:17.861Z,4.27
2017-11-17T23:57:45.269Z,5.40
